• Join FlightAware (Why Join?)
  • Login
  • US Flag 
08:32PM EDT


 

Airport Tracker/Info


-or-


 

Live Flight TrackerFlight Track Log ✈ PDT4207 ✈ 23-Oct-2013 ✈ KPHL - KBGM

Flight Track Log - Related Links

Times and Time Zones

All times are in EDT time to prevent confusion due to time zone crossing. See the PDT4207 flight status page for this flight to view local times or setup timezone preferences in your user account.

Time Position Orientation Groundspeed Altitude Reporting Facility
EDT Latitude Longitude Course Direction KTS MPH feet Rate Location/Type
09:31PM 39.9000 -75.2333 295° West 116 133 700  Level Philadelphia TRACON
09:32PM 39.9000 -75.2500 270° West 105 121 1,500 1,440 Climbing Philadelphia TRACON
09:33PM 39.9131 -75.3258 283° West 125 144 3,900 1,380 Climbing New York Center
09:34PM 40.1107 -75.3139 311° West  Level Estimated
09:34PM 39.9194 -75.3775 279° West 136 157 5,400  Level New York Center
09:35PM 40.1902 -75.3383 311° West  Level Estimated
09:35PM 39.9319 -75.4297 287° West 151 174 6,900  Level New York Center
09:36PM 40.2243 -75.4354 295° West  Level FlightAware Approximate
09:36PM 39.9422 -75.4875 283° West 151 174 14,000  Level New York Center
09:37PM 39.9853 -75.5011 346° North 129 148 9,100 -2,100 Descending New York Center
09:38PM 40.0411 -75.5158 349° North 176 203 9,900 780 Climbing New York Center
09:39PM 40.0964 -75.5358 345° North 197 227 10,700 780 Climbing New York Center
09:40PM 40.1544 -75.5425 355° North 203 234 11,500 660 Climbing New York Center
09:41PM 40.2167 -75.5522 353° North 208 239 12,100 240 Climbing New York Center
09:42PM 40.2744 -75.5644 351° North 230 265 12,000  Descending New York Center
09:43PM 40.3425 -75.5828 348° North 230 265 12,100  Climbing New York Center
09:44PM 40.4044 -75.6006 348° North 230 265 12,100  Level New York Center
09:45PM 40.4683 -75.6189 348° North 230 265 12,100 -60 Level New York Center
09:46PM 40.5264 -75.6228 357° North 235 270 12,000  Descending New York Center
09:47PM 40.5931 -75.6250 359° North 235 270 12,100  Climbing New York Center
09:48PM 40.6567 -75.6458 346° North 235 270 12,000  Descending New York Center
09:49PM 40.7247 -75.6644 348° North 235 270 12,100  Climbing New York Center
09:50PM 40.7911 -75.6744 353° North 235 270 12,100  Level New York Center
09:51PM 40.8572 -75.6875 352° North 235 270 12,100  Level New York Center
09:52PM 40.9131 -75.6997 351° North 235 270 12,100  Level New York Center
09:53PM 40.9853 -75.7133 352° North 235 270 12,100  Level New York Center
09:54PM 41.0517 -75.7236 353° North 235 270 12,100  Level New York Center
09:55PM 41.1131 -75.7475 344° North 235 270 12,100  Level New York Center
09:56PM 41.1769 -75.7631 350° North 235 270 12,100  Level New York Center
09:57PM 41.2350 -75.7703 355° North 235 270 12,100  Level New York Center
09:58PM 41.3031 -75.7864 350° North 230 265 12,100  Level New York Center
09:59PM 41.3669 -75.8022 349° North 230 265 12,100 -60 Level New York Center
10:00PM 41.4311 -75.8125 353° North 230 265 12,000  Descending New York Center
10:01PM 41.4950 -75.8283 349° North 230 265 12,100 -360 Climbing New York Center
10:02PM 41.5531 -75.8356 355° North 235 270 11,300 -900 Descending New York Center
10:03PM 41.6219 -75.8294 North 235 270 10,300 -1,200 Descending New York Center
10:04PM 41.6972 -75.8242 North 240 276 9,000 -1,380 Descending New York Center
10:05PM 41.7661 -75.8183 North 240 276 7,600 -1,500 Descending New York Center
10:06PM 41.8308 -75.8147 North 240 276 6,000 -1,500 Descending New York Center
10:07PM 41.8850 -75.8133 North 228 262 4,700 -1,020 Descending New York Center
10:08PM 41.9433 -75.8122 North 215 247 4,000 -360 Descending New York Center
10:09PM 42.0014 -75.8194 355° North 195 224 4,000  Level New York Center
10:10PM 42.0439 -75.8450 336° Northwest 176 203 4,000  Level New York Center
10:11PM 42.0800 -75.8758 328° Northwest 163 188 4,000 -120 Level New York Center
10:12PM 42.1103 -75.9006 329° Northwest 142 163 3,800 -420 Descending New York Center
10:13PM 42.1325 -75.9189 329° Northwest 122 140 3,200 -660 Descending New York Center
10:14PM 42.1606 -75.9408 330° Northwest 117 135 2,500 -600 Descending New York Center
10:15PM 42.1925 -75.9714 325° Northwest 123 142 2,000 -540 Descending New York Center